createdAt,value
2017-09-01T00:01:44.576Z,77.00
2017-09-01T00:04:12.844Z,77.10
2017-09-01T00:06:40.284Z,77.20
2017-09-01T00:09:07.744Z,77.20
2017-09-01T00:11:35.192Z,77.10
2017-09-01T00:14:02.642Z,77.10
2017-09-01T00:16:30.079Z,77.50
2017-09-01T00:18:57.546Z,77.20
2017-09-01T00:21:25.002Z,77.20
2017-09-01T00:23:52.462Z,77.00
2017-09-01T00:26:19.931Z,77.10
2017-09-01T00:28:47.389Z,77.00
2017-09-01T00:31:14.845Z,76.80
2017-09-01T00:33:42.300Z,77.30
2017-09-01T00:36:09.760Z,76.80
2017-09-01T00:38:37.208Z,77.20
2017-09-01T00:41:04.681Z,77.20
2017-09-01T00:43:32.124Z,77.20
2017-09-01T00:45:59.574Z,76.70
2017-09-01T00:48:27.021Z,76.50
2017-09-01T00:50:54.481Z,76.50
2017-09-01T00:53:21.944Z,76.30
2017-09-01T00:55:49.409Z,76.20
2017-09-01T00:58:17.153Z,76.00
2017-09-01T01:00:44.604Z,76.00
2017-09-01T01:03:12.042Z,76.20
2017-09-01T01:05:39.485Z,76.30
2017-09-01T01:08:06.950Z,76.30
2017-09-01T01:10:34.397Z,76.30
2017-09-01T01:13:01.861Z,76.30
2017-09-01T01:15:29.317Z,76.10
2017-09-01T01:17:56.781Z,75.90
2017-09-01T01:20:24.234Z,75.70
2017-09-01T01:22:51.693Z,75.60
2017-09-01T01:25:19.157Z,75.60
2017-09-01T01:27:46.626Z,75.60
2017-09-01T01:30:14.080Z,76.00
2017-09-01T01:32:41.536Z,76.00
2017-09-01T01:35:08.993Z,76.20
2017-09-01T01:37:36.443Z,76.70
2017-09-01T01:40:03.918Z,76.70
2017-09-01T01:42:31.373Z,76.40
2017-09-01T01:44:58.825Z,76.30
2017-09-01T01:47:26.281Z,76.20
2017-09-01T01:49:53.728Z,76.00
2017-09-01T01:52:21.175Z,75.60
2017-09-01T01:54:48.637Z,75.90
2017-09-01T01:57:16.105Z,76.20
2017-09-01T01:59:43.561Z,76.20
2017-09-01T02:02:11.031Z,76.20
2017-09-01T02:04:38.929Z,76.40
2017-09-01T02:07:06.389Z,76.50
2017-09-01T02:09:33.845Z,76.80
2017-09-01T02:12:01.390Z,77.00
2017-09-01T02:14:29.062Z,77.20
2017-09-01T02:16:56.580Z,77.40
2017-09-01T02:19:24.036Z,77.40
2017-09-01T02:21:51.485Z,77.30
2017-09-01T02:24:18.952Z,77.40
2017-09-01T02:26:46.405Z,76.90
2017-09-01T02:29:13.944Z,76.70
2017-09-01T02:31:41.401Z,76.80
2017-09-01T02:34:08.865Z,76.80
2017-09-01T02:36:36.309Z,76.80
2017-09-01T02:39:03.765Z,76.90
2017-09-01T02:41:31.217Z,77.20
2017-09-01T02:43:58.676Z,77.60
2017-09-01T02:46:26.137Z,77.50
2017-09-01T02:48:53.594Z,77.50
2017-09-01T02:51:21.064Z,77.30
2017-09-01T02:53:48.540Z,77.50
2017-09-01T02:56:16.001Z,77.30
2017-09-01T02:58:43.661Z,77.40
2017-09-01T03:01:11.124Z,77.50
2017-09-01T03:03:38.580Z,77.40
2017-09-01T03:06:06.041Z,77.40
2017-09-01T03:08:33.496Z,77.40
2017-09-01T03:11:00.949Z,77.50
2017-09-01T03:13:28.481Z,77.70
2017-09-01T03:15:55.958Z,77.70
2017-09-01T03:18:23.414Z,77.60
2017-09-01T03:20:50.856Z,77.50
2017-09-01T03:23:18.308Z,77.40
2017-09-01T03:25:45.757Z,77.30
2017-09-01T03:28:13.213Z,77.30
2017-09-01T03:30:40.657Z,77.20
2017-09-01T03:33:08.120Z,77.20
2017-09-01T03:35:35.565Z,77.10
2017-09-01T03:38:03.033Z,77.10
2017-09-01T03:40:30.565Z,77.10
2017-09-01T03:42:58.047Z,77.10
2017-09-01T03:45:25.484Z,77.10
2017-09-01T03:47:52.940Z,77.10
2017-09-01T03:50:20.392Z,77.20
2017-09-01T03:52:47.836Z,77.40
2017-09-01T03:55:15.289Z,77.10
2017-09-01T03:57:42.765Z,77.20
2017-09-01T04:00:10.224Z,77.20
2017-09-01T04:02:37.676Z,77.30
2017-09-01T04:05:05.133Z,77.50
2017-09-01T04:07:32.959Z,77.50
2017-09-01T04:10:00.425Z,77.70
2017-09-01T04:12:27.887Z,77.80
2017-09-01T04:14:55.348Z,77.90
2017-09-01T04:17:22.805Z,78.10
2017-09-01T04:19:50.257Z,78.00
2017-09-01T04:22:17.717Z,78.10
2017-09-01T04:24:45.177Z,77.90
2017-09-01T04:27:12.633Z,78.10
2017-09-01T04:29:40.096Z,78.10
2017-09-01T04:32:07.553Z,78.30
2017-09-01T04:34:35.057Z,78.70
2017-09-01T04:37:02.517Z,78.80
2017-09-01T04:39:29.957Z,78.70
2017-09-01T04:41:57.425Z,78.50
2017-09-01T04:44:24.909Z,78.70
2017-09-01T04:46:52.380Z,78.60
2017-09-01T04:49:19.832Z,78.40
2017-09-01T04:51:47.280Z,78.90
2017-09-01T04:54:14.745Z,78.00
2017-09-01T04:56:42.197Z,77.80
2017-09-01T04:59:09.660Z,77.80
2017-09-01T05:01:37.153Z,77.90
2017-09-01T05:04:04.601Z,78.10
2017-09-01T05:06:32.069Z,78.10
2017-09-01T05:08:59.530Z,78.20
2017-09-01T05:11:26.977Z,78.20
2017-09-01T05:13:54.444Z,78.30
2017-09-01T05:16:21.900Z,78.30
2017-09-01T05:18:49.347Z,78.40
2017-09-01T05:21:16.804Z,78.30
2017-09-01T05:23:44.245Z,78.50
2017-09-01T05:26:11.705Z,78.60
2017-09-01T05:28:39.171Z,78.70
2017-09-01T05:31:06.620Z,78.50
2017-09-01T05:33:34.077Z,78.30
2017-09-01T05:36:01.544Z,78.30
2017-09-01T05:38:28.990Z,78.40
2017-09-01T05:40:56.441Z,78.30
2017-09-01T05:43:23.898Z,78.30
2017-09-01T05:45:51.362Z,78.40
2017-09-01T05:48:18.821Z,78.50
2017-09-01T05:50:46.276Z,78.60
2017-09-01T05:53:13.733Z,78.60
2017-09-01T05:55:41.197Z,78.50
2017-09-01T05:58:08.648Z,78.30
2017-09-01T06:00:36.101Z,78.10
2017-09-01T06:03:03.561Z,78.10
2017-09-01T06:05:31.031Z,79.00
2017-09-01T06:07:58.496Z,78.50
2017-09-01T06:10:26.357Z,78.50
2017-09-01T06:12:53.823Z,78.70
2017-09-01T06:15:21.281Z,78.70
2017-09-01T06:17:48.745Z,78.70
2017-09-01T06:20:16.214Z,78.60
2017-09-01T06:22:43.664Z,78.50
2017-09-01T06:25:11.120Z,78.60
2017-09-01T06:27:38.581Z,78.50
2017-09-01T06:30:06.041Z,78.70
2017-09-01T06:32:33.496Z,79.10
2017-09-01T06:35:00.965Z,78.70
2017-09-01T06:37:28.423Z,78.70
2017-09-01T06:39:55.872Z,78.80
2017-09-01T06:42:23.332Z,78.70
2017-09-01T06:44:50.793Z,78.70
2017-09-01T06:47:18.250Z,78.70
2017-09-01T06:49:45.701Z,78.90
2017-09-01T06:52:13.167Z,78.80
2017-09-01T06:54:40.625Z,78.70
2017-09-01T06:57:08.088Z,78.70
2017-09-01T06:59:35.541Z,78.80
2017-09-01T07:02:03.007Z,78.90
2017-09-01T07:04:30.462Z,79.70
2017-09-01T07:06:57.934Z,79.10
2017-09-01T07:09:25.387Z,79.10
2017-09-01T07:11:52.837Z,79.20
2017-09-01T07:14:20.292Z,79.20
2017-09-01T07:16:48.369Z,79.30
2017-09-01T07:19:15.824Z,79.20
2017-09-01T07:21:43.273Z,79.10
2017-09-01T07:24:10.725Z,79.10
2017-09-01T07:26:38.191Z,79.80
2017-09-01T07:29:05.649Z,79.30
2017-09-01T07:31:33.108Z,79.30
2017-09-01T07:34:00.571Z,79.20
2017-09-01T07:36:28.026Z,79.30
2017-09-01T07:38:55.483Z,79.30
2017-09-01T07:41:22.928Z,79.30
2017-09-01T07:43:50.377Z,79.20
2017-09-01T07:46:17.844Z,79.30
2017-09-01T07:48:45.285Z,79.30
2017-09-01T07:51:12.750Z,79.20
2017-09-01T07:53:40.192Z,79.20
2017-09-01T07:56:08.423Z,79.20
2017-09-01T07:58:35.868Z,79.20
2017-09-01T08:01:03.336Z,79.30
2017-09-01T08:03:30.796Z,79.30
2017-09-01T08:05:58.270Z,79.30
2017-09-01T08:08:25.714Z,79.30
2017-09-01T08:10:53.169Z,79.40
2017-09-01T08:13:20.599Z,79.40
2017-09-01T08:15:48.055Z,80.10
2017-09-01T08:18:15.526Z,79.50
2017-09-01T08:20:42.974Z,79.50
2017-09-01T08:23:10.443Z,79.40
2017-09-01T08:25:37.913Z,79.40
2017-09-01T08:28:05.367Z,79.50
2017-09-01T08:30:32.808Z,79.60
2017-09-01T08:33:00.273Z,79.50
2017-09-01T08:35:27.730Z,79.50
2017-09-01T08:37:55.201Z,80.20
2017-09-01T08:40:22.663Z,79.40
2017-09-01T08:42:50.120Z,79.40
2017-09-01T08:45:17.571Z,79.40
2017-09-01T08:47:45.029Z,79.40
2017-09-01T08:50:12.487Z,79.40
2017-09-01T08:52:39.945Z,79.30
2017-09-01T08:55:07.389Z,79.20
2017-09-01T08:57:34.857Z,79.30
2017-09-01T09:00:02.314Z,79.30
2017-09-01T09:02:29.756Z,79.30
2017-09-01T09:04:57.217Z,79.50
2017-09-01T09:07:24.677Z,79.40
2017-09-01T09:09:52.144Z,79.40
2017-09-01T09:12:19.601Z,79.40
2017-09-01T09:14:47.061Z,79.30
2017-09-01T09:17:14.524Z,79.30
2017-09-01T09:19:41.976Z,79.30
2017-09-01T09:22:09.429Z,79.10
2017-09-01T09:24:36.884Z,78.90
2017-09-01T09:27:04.354Z,78.50
2017-09-01T09:29:31.802Z,78.20
2017-09-01T09:31:59.258Z,78.10
2017-09-01T09:34:26.713Z,77.90
2017-09-01T09:36:54.177Z,77.50
2017-09-01T09:39:21.625Z,77.40
2017-09-01T09:41:49.086Z,77.40
2017-09-01T09:44:16.541Z,77.40
2017-09-01T09:46:43.995Z,77.30
2017-09-01T09:49:11.447Z,77.20
2017-09-01T09:51:40.053Z,77.20
2017-09-01T09:54:07.565Z,77.70
2017-09-01T09:56:35.013Z,77.00
2017-09-01T09:59:02.475Z,76.60
2017-09-01T10:01:29.936Z,76.20
2017-09-01T10:03:57.385Z,76.00
2017-09-01T10:06:24.847Z,76.10
2017-09-01T10:08:52.301Z,76.10
2017-09-01T10:11:19.753Z,76.20
2017-09-01T10:13:47.213Z,75.80
2017-09-01T10:16:14.666Z,75.80
2017-09-01T10:18:42.136Z,75.40
2017-09-01T10:21:10.348Z,73.80
2017-09-01T10:23:37.812Z,73.70
2017-09-01T10:26:05.257Z,73.90
2017-09-01T10:28:32.736Z,74.40
2017-09-01T10:31:00.193Z,73.50
2017-09-01T10:33:27.650Z,73.90
2017-09-01T10:35:55.309Z,73.20
2017-09-01T10:38:22.768Z,74.20
2017-09-01T10:40:50.225Z,73.30
2017-09-01T10:43:17.669Z,73.10
2017-09-01T10:45:45.132Z,73.10
2017-09-01T10:48:24.445Z,72.80
2017-09-01T10:51:03.849Z,72.90
2017-09-01T10:53:43.139Z,72.60
2017-09-01T10:56:22.537Z,71.80
2017-09-01T10:58:49.989Z,71.90
2017-09-01T11:01:17.425Z,71.10
2017-09-01T11:03:44.849Z,69.60
2017-09-01T11:06:12.293Z,69.90
2017-09-01T11:08:39.754Z,69.70
2017-09-01T11:11:07.233Z,69.80
2017-09-01T11:13:34.689Z,70.00
2017-09-01T11:16:02.149Z,69.70
2017-09-01T11:18:30.990Z,69.60
2017-09-01T11:21:04.188Z,69.50
2017-09-01T11:23:37.269Z,69.70
2017-09-01T11:26:04.721Z,68.00
2017-09-01T11:28:32.181Z,68.90
2017-09-01T11:30:59.629Z,65.80
2017-09-01T11:33:27.093Z,65.60
2017-09-01T11:35:54.532Z,64.50
2017-09-01T11:38:22.006Z,66.00
2017-09-01T11:40:49.452Z,66.60
2017-09-01T11:43:16.897Z,65.80
2017-09-01T11:45:44.360Z,65.70
2017-09-01T11:48:11.825Z,66.00
2017-09-01T11:50:39.281Z,65.60
2017-09-01T11:53:06.745Z,66.20
2017-09-01T11:55:34.201Z,66.00
2017-09-01T11:58:01.656Z,64.90
2017-09-01T12:00:29.114Z,64.40
2017-09-01T12:02:56.553Z,64.50
2017-09-01T12:05:24.014Z,64.80
2017-09-01T12:07:51.480Z,65.10
2017-09-01T12:10:18.933Z,64.50
2017-09-01T12:12:46.393Z,63.60
2017-09-01T12:15:13.851Z,64.30
2017-09-01T12:17:41.306Z,63.90
2017-09-01T12:20:08.769Z,63.80
2017-09-01T12:22:36.229Z,63.80
2017-09-01T12:25:03.686Z,63.70
2017-09-01T12:27:31.144Z,63.50
2017-09-01T12:29:58.602Z,62.20
2017-09-01T12:32:26.062Z,63.20
2017-09-01T12:34:53.516Z,63.20
2017-09-01T12:37:20.973Z,62.80
2017-09-01T12:39:48.438Z,61.00
2017-09-01T12:42:15.900Z,61.80
2017-09-01T12:44:43.361Z,61.80
2017-09-01T12:47:10.804Z,61.50
2017-09-01T12:49:38.265Z,61.20
2017-09-01T12:52:05.718Z,60.40
2017-09-01T12:54:33.189Z,58.60
2017-09-01T12:57:00.645Z,59.90
2017-09-01T12:59:28.089Z,58.70
2017-09-01T13:01:55.553Z,58.90
2017-09-01T13:04:23.007Z,59.50
2017-09-01T13:06:50.489Z,59.40
2017-09-01T13:09:17.945Z,58.20
2017-09-01T13:11:45.408Z,58.50
2017-09-01T13:14:12.848Z,58.30
2017-09-01T13:16:40.308Z,56.90
2017-09-01T13:19:07.764Z,56.80
2017-09-01T13:21:35.225Z,57.00
2017-09-01T13:24:02.690Z,56.20
2017-09-01T13:26:30.145Z,57.20
2017-09-01T13:28:58.385Z,57.60
2017-09-01T13:31:25.815Z,56.80
2017-09-01T13:33:53.278Z,56.30
2017-09-01T13:36:20.737Z,55.40
2017-09-01T13:38:48.193Z,56.10
2017-09-01T13:41:15.649Z,57.40
2017-09-01T13:43:43.104Z,57.80
2017-09-01T13:46:10.566Z,58.10
2017-09-01T13:48:38.033Z,59.10
2017-09-01T13:51:06.784Z,61.50
2017-09-01T13:53:34.228Z,62.90
2017-09-01T13:56:01.685Z,63.10
2017-09-01T13:58:29.141Z,64.30
2017-09-01T14:00:56.592Z,64.80
2017-09-01T14:03:24.053Z,65.40
2017-09-01T14:05:51.509Z,66.20
2017-09-01T14:08:18.974Z,66.40
2017-09-01T14:10:46.434Z,66.50
2017-09-01T14:13:13.905Z,67.10
2017-09-01T14:15:41.365Z,67.30
2017-09-01T14:18:08.817Z,67.80
2017-09-01T14:20:36.281Z,67.90
2017-09-01T14:23:03.733Z,68.70
2017-09-01T14:25:31.185Z,68.60
2017-09-01T14:27:58.663Z,68.80
2017-09-01T14:30:26.117Z,68.60
2017-09-01T14:32:53.593Z,69.00
2017-09-01T14:35:21.054Z,69.10
2017-09-01T14:37:48.501Z,69.80
2017-09-01T14:40:15.961Z,69.80
2017-09-01T14:42:43.414Z,70.00
2017-09-01T14:45:10.878Z,69.70
2017-09-01T14:47:38.322Z,69.50
2017-09-01T14:50:05.790Z,70.00
2017-09-01T14:52:33.237Z,70.10
2017-09-01T14:55:00.700Z,70.10
2017-09-01T14:57:28.145Z,70.20
2017-09-01T14:59:55.591Z,70.50
2017-09-01T15:02:23.037Z,70.50
2017-09-01T15:04:51.152Z,70.50
2017-09-01T15:07:18.665Z,70.80
2017-09-01T15:09:46.126Z,70.80
2017-09-01T15:12:13.581Z,70.90
2017-09-01T15:14:41.039Z,71.00
2017-09-01T15:17:08.493Z,71.10
2017-09-01T15:19:36.009Z,71.30
2017-09-01T16:44:00.587Z,71.10
2017-09-01T16:46:28.072Z,69.30
2017-09-01T16:48:55.529Z,69.30
2017-09-01T16:51:22.989Z,69.30
2017-09-01T16:53:50.436Z,69.70
2017-09-01T16:56:17.892Z,69.80
2017-09-01T16:58:45.351Z,69.50
2017-09-01T17:01:12.829Z,70.00
2017-09-01T17:03:40.298Z,70.30
2017-09-01T17:06:07.741Z,70.40
2017-09-01T17:08:35.260Z,70.30
2017-09-01T17:11:02.711Z,70.40
2017-09-01T17:13:30.170Z,70.40
2017-09-01T17:15:57.613Z,70.60
2017-09-01T17:18:25.139Z,70.40
2017-09-01T17:20:52.621Z,70.40
2017-09-01T17:23:20.092Z,70.60
2017-09-01T17:25:47.539Z,70.90
2017-09-01T17:28:15.098Z,70.90
2017-09-01T17:30:42.537Z,70.90
2017-09-01T17:33:10.009Z,70.90
2017-09-01T17:35:37.472Z,70.90
2017-09-01T17:38:04.938Z,71.10
2017-09-01T17:40:32.372Z,71.10
2017-09-01T17:42:59.819Z,71.20
2017-09-01T17:45:27.263Z,72.00
2017-09-01T17:47:54.716Z,71.20
2017-09-01T17:50:22.177Z,71.20
2017-09-01T17:52:49.637Z,71.30
2017-09-01T17:55:17.105Z,71.30
2017-09-01T17:57:44.551Z,71.30
2017-09-01T18:00:12.014Z,71.40
2017-09-01T18:02:39.477Z,71.60
2017-09-01T18:05:06.930Z,71.50
2017-09-01T18:07:34.385Z,71.60
2017-09-01T18:10:01.841Z,71.60
2017-09-01T18:12:30.549Z,72.00
2017-09-01T18:17:40.112Z,72.00
2017-09-01T18:20:07.553Z,72.20
2017-09-01T18:22:35.014Z,72.40
2017-09-01T18:25:02.470Z,72.40
2017-09-01T18:27:29.924Z,72.60
2017-09-01T18:29:57.376Z,72.50
2017-09-01T18:32:24.928Z,73.10
2017-09-01T18:34:52.379Z,72.50
2017-09-01T18:37:19.829Z,72.50
2017-09-01T18:39:47.286Z,72.50
2017-09-01T18:42:14.749Z,72.50
2017-09-01T18:44:42.208Z,72.50
2017-09-01T18:47:09.665Z,72.50
2017-09-01T18:49:37.132Z,72.30
2017-09-01T18:52:04.590Z,72.30
2017-09-01T18:54:32.051Z,72.30
2017-09-01T18:56:59.497Z,72.30
2017-09-01T18:59:27.033Z,72.30
2017-09-01T19:01:55.404Z,72.30
2017-09-01T19:04:22.914Z,72.40
2017-09-01T19:06:50.352Z,72.60
2017-09-01T19:09:17.800Z,72.70
2017-09-01T19:11:45.265Z,72.60
2017-09-01T19:14:13.111Z,72.60
2017-09-01T19:16:40.577Z,72.70
2017-09-01T19:19:08.037Z,72.70
2017-09-01T19:21:35.506Z,72.70
2017-09-01T19:24:02.956Z,73.40
2017-09-01T19:26:30.413Z,72.60
2017-09-01T19:28:57.878Z,72.70
2017-09-01T19:31:25.341Z,72.70
2017-09-01T19:33:53.561Z,72.90
2017-09-01T19:36:21.006Z,72.90
2017-09-01T19:38:50.144Z,72.90
2017-09-01T19:41:17.596Z,73.00
2017-09-01T19:43:45.071Z,73.10
2017-09-01T19:46:12.525Z,73.10
2017-09-01T19:48:39.977Z,73.20
2017-09-01T19:51:07.440Z,73.10
2017-09-01T19:53:34.901Z,72.90
2017-09-01T19:56:02.356Z,72.90
2017-09-01T19:58:30.129Z,72.90
2017-09-01T20:00:57.573Z,72.90
2017-09-01T20:03:25.024Z,72.90
2017-09-01T20:05:52.503Z,72.80
2017-09-01T20:08:20.066Z,72.90
2017-09-01T20:10:47.523Z,73.10
2017-09-01T20:13:14.981Z,73.10
2017-09-01T20:15:42.438Z,73.10
2017-09-01T20:18:09.883Z,73.30
2017-09-01T20:20:37.337Z,73.20
2017-09-01T20:23:04.841Z,73.10
2017-09-01T20:25:32.297Z,73.00
2017-09-01T20:27:59.748Z,73.00
2017-09-01T20:30:27.201Z,73.00
2017-09-01T20:32:54.669Z,73.00
2017-09-01T20:35:22.128Z,72.90
2017-09-01T20:37:49.573Z,72.90
2017-09-01T20:40:17.025Z,73.00
2017-09-01T20:42:44.481Z,73.10
2017-09-01T20:45:11.966Z,73.10
2017-09-01T20:47:39.433Z,73.10
2017-09-01T20:50:06.891Z,73.00
2017-09-01T20:52:34.797Z,73.10
2017-09-01T20:55:02.249Z,73.10
2017-09-01T20:57:29.697Z,73.10
2017-09-01T20:59:57.151Z,73.10
2017-09-01T21:02:24.602Z,73.10
2017-09-01T21:04:52.824Z,73.10
2017-09-01T21:07:20.274Z,73.10
2017-09-01T21:09:47.732Z,73.20
2017-09-01T21:12:15.189Z,73.20
2017-09-01T21:14:42.648Z,73.30
2017-09-01T21:17:10.936Z,73.30
2017-09-01T21:19:38.402Z,73.40
2017-09-01T21:22:05.859Z,73.50
2017-09-01T21:24:33.321Z,73.60
2017-09-01T21:27:00.785Z,73.60
2017-09-01T21:29:28.232Z,73.70
2017-09-01T21:31:55.805Z,73.60
2017-09-01T21:34:23.253Z,73.80
2017-09-01T21:36:50.705Z,73.90
2017-09-01T21:39:18.201Z,73.90
2017-09-01T21:41:45.667Z,74.20
2017-09-01T21:44:13.125Z,74.10
2017-09-01T21:46:40.586Z,74.30
2017-09-01T21:49:08.023Z,74.30
2017-09-01T21:51:35.464Z,74.20
2017-09-01T21:54:02.928Z,74.30
2017-09-01T21:56:30.597Z,74.30
2017-09-01T21:58:58.049Z,74.30
2017-09-01T22:01:33.417Z,74.30
2017-09-01T22:04:00.944Z,74.30
2017-09-01T22:06:28.402Z,74.50
2017-09-01T22:08:55.869Z,74.50
2017-09-01T22:11:23.373Z,74.60
2017-09-01T22:13:50.859Z,74.70
2017-09-01T22:16:18.317Z,74.70
2017-09-01T22:18:46.352Z,74.70
2017-09-01T22:21:13.923Z,74.70
2017-09-01T22:23:41.343Z,74.70
2017-09-01T22:26:08.793Z,74.60
2017-09-01T22:28:36.256Z,74.50
2017-09-01T22:31:03.724Z,74.50
2017-09-01T22:33:31.185Z,74.60
2017-09-01T22:35:58.661Z,74.70
2017-09-01T22:38:26.121Z,74.70
2017-09-01T22:40:53.577Z,74.80
2017-09-01T22:43:21.054Z,75.00
2017-09-01T22:45:48.500Z,74.90
2017-09-01T22:48:15.948Z,75.00
2017-09-01T22:50:43.386Z,75.00
2017-09-01T22:53:10.845Z,75.00
2017-09-01T22:55:38.302Z,75.10
2017-09-01T22:58:05.761Z,75.20
2017-09-01T23:00:33.221Z,75.20
2017-09-01T23:03:00.668Z,75.30
2017-09-01T23:05:28.129Z,75.60
2017-09-01T23:07:55.576Z,75.60
2017-09-01T23:10:23.052Z,75.60
2017-09-01T23:12:50.506Z,75.60
2017-09-01T23:15:17.963Z,75.70
2017-09-01T23:17:45.412Z,75.60
2017-09-01T23:20:12.879Z,75.70
2017-09-01T23:22:40.334Z,75.80
2017-09-01T23:25:07.798Z,75.70
2017-09-01T23:27:35.268Z,75.90
2017-09-01T23:30:02.720Z,76.00
2017-09-01T23:32:30.240Z,76.10
2017-09-01T23:34:57.699Z,76.10
2017-09-01T23:37:25.153Z,76.10
2017-09-01T23:39:53.265Z,76.10
2017-09-01T23:42:21.476Z,76.20
2017-09-01T23:44:48.934Z,76.10
2017-09-01T23:47:16.398Z,76.20
2017-09-01T23:49:43.861Z,76.20
2017-09-01T23:52:11.322Z,76.20
2017-09-01T23:54:38.781Z,76.20
2017-09-01T23:57:07.141Z,76.30
2017-09-01T23:59:34.601Z,76.10
